This is the latest recevied weather packets stored in our database for station/object W5HKR. If no packets are shown the sender has not sent any weather packets the latest 10 day(s).
| Time | Temp. | Humidity | Pressure | Rain* | Wind** | Luminosity | Snow |
|---|---|---|---|---|---|---|---|
| 1777482504 | 26.67° C | 83% | 983.7 hPa | 0 mm | - | - | - |
| 1777482276 | 26.67° C | 82% | 984.1 hPa | 0 mm | - | - | - |
| 1777482204 | 26.67° C | 83% | 984.1 hPa | 0 mm | - | - | - |
| 1777481906 | 18.33° C | 91% | 990.6 hPa | 0 mm | - | - | - |
| 1777481606 | 26.11° C | 84% | 983.7 hPa | 0 mm | - | - | - |
| 1777481306 | 18.33° C | 91% | 990.6 hPa | 0 mm | - | - | - |
| 1777481195 | 18.33° C | 91% | 990.6 hPa | 0 mm | - | - | - |
| 1777481005 | 18.33° C | 91% | 990.6 hPa | 0 mm | - | - | - |
| 1777480705 | 26.11° C | 84% | 984.2 hPa | 0 mm | - | - | - |
| 1777480405 | 26.11° C | 85% | 984.3 hPa | 0 mm | - | - | - |
| 1777480104 | 26.11° C | 85% | 983.7 hPa | 0 mm | - | - | - |
| 1777479804 | 26.11° C | 84% | 983.7 hPa | 0 mm | - | - | - |
| 1777479505 | 26.11° C | 85% | 983.5 hPa | 0 mm | - | - | - |
| 1777479037 | 26.11° C | 85% | 984.3 hPa | 0 mm | - | - | - |
| 1777478905 | 26.11° C | 85% | 984.1 hPa | 0 mm | - | - | - |
| 1777478605 | 26.11° C | 85% | 984.1 hPa | 0 mm | - | - | - |
| 1777478305 | 26.11° C | 85% | 984.2 hPa | 0 mm | - | - | - |
| 1777478003 | 18.33° C | 91% | 990.6 hPa | 0 mm | - | - | - |
| 1777477957 | 26.11° C | 85% | 983.7 hPa | 0 mm | - | - | - |
| 1777476877 | 18.33° C | 91% | 990.6 hPa | 0 mm | - | - | - |
| 1777476804 | 18.33° C | 91% | 990.6 hPa | 0 mm | - | - | - |
| 1777476504 | 25.56° C | 85% | 984.1 hPa | 0 mm | - | - | - |
| 1777476205 | 18.33° C | 91% | 990.6 hPa | 0 mm | - | - | - |
| 1777475905 | 26.11° C | 85% | 984 hPa | 0 mm | - | - | - |
| 1777475797 | 26.11° C | 86% | 984.4 hPa | 0 mm | - | - | - |
* Rain latest hour (hover to see other rain measurements)
** Current wind speed in m/s (hover to see current wind gust speed)